Terminal Aerodrome Forecast
Issued by NWS

Home | Current Version | Previous Version | Text Only | Print | Product List | Glossary On
Versions: 1 2 3 4 5 6 7 8 9 10 11 12 13 14 15 16 17 18
000
FTUS42 KTAE 310500
TAFVLD
TAF
KVLD 310539Z 3106/0106 00000KT P6SM SKC
     FM311400 33005KT P6SM SKC
     FM311900 32007G12KT P6SM SCT250
     FM010300 30008KT P6SM SKC=

USA.gov is the U.S. government's official web portal to all federal, state and local government web resources and services.